sensor_id;sensor_type;location;lat;lon;timestamp;P1;P2;P0
44933;PMS3003;30667;43.614;1.442;2024-02-04T00:01:13;50.50;35.00;19.00
44933;PMS3003;30667;43.614;1.442;2024-02-04T00:03:39;51.50;41.75;23.00
44933;PMS3003;30667;43.614;1.442;2024-02-04T00:06:04;49.75;39.75;21.50
44933;PMS3003;30667;43.614;1.442;2024-02-04T00:08:30;47.00;37.75;22.00
44933;PMS3003;30667;43.614;1.442;2024-02-04T00:10:55;49.75;36.50;19.50
44933;PMS3003;30667;43.614;1.442;2024-02-04T00:13:20;51.50;37.00;21.00
44933;PMS3003;30667;43.614;1.442;2024-02-04T00:15:46;38.75;35.25;20.00
44933;PMS3003;30667;43.614;1.442;2024-02-04T00:18:11;47.25;37.50;20.50
44933;PMS3003;30667;43.614;1.442;2024-02-04T00:20:36;42.50;37.50;20.00
44933;PMS3003;30667;43.614;1.442;2024-02-04T00:23:02;45.25;37.00;18.00
44933;PMS3003;30667;43.614;1.442;2024-02-04T00:25:27;47.25;40.00;21.75
44933;PMS3003;30667;43.614;1.442;2024-02-04T00:27:54;46.00;37.00;19.20
44933;PMS3003;30667;43.614;1.442;2024-02-04T00:30:19;49.50;37.25;19.75
44933;PMS3003;30667;43.614;1.442;2024-02-04T00:32:45;43.00;38.25;19.00
44933;PMS3003;30667;43.614;1.442;2024-02-04T00:35:10;50.25;39.75;21.50
44933;PMS3003;30667;43.614;1.442;2024-02-04T00:37:36;44.25;36.50;19.00
44933;PMS3003;30667;43.614;1.442;2024-02-04T00:40:01;51.75;38.00;20.00
44933;PMS3003;30667;43.614;1.442;2024-02-04T00:42:27;43.50;33.50;16.75
44933;PMS3003;30667;43.614;1.442;2024-02-04T00:44:52;42.25;34.00;18.00
44933;PMS3003;30667;43.614;1.442;2024-02-04T00:47:17;47.50;38.00;19.50
44933;PMS3003;30667;43.614;1.442;2024-02-04T00:49:43;40.25;33.75;18.00
44933;PMS3003;30667;43.614;1.442;2024-02-04T00:52:08;51.25;36.25;19.00
44933;PMS3003;30667;43.614;1.442;2024-02-04T00:54:33;43.75;37.25;19.50
44933;PMS3003;30667;43.614;1.442;2024-02-04T00:56:59;44.50;35.00;19.00
44933;PMS3003;30667;43.614;1.442;2024-02-04T00:59:25;45.00;35.60;19.00
44933;PMS3003;30667;43.614;1.442;2024-02-04T01:01:50;37.50;32.50;17.00
44933;PMS3003;30667;43.614;1.442;2024-02-04T01:04:16;35.50;28.00;15.75
44933;PMS3003;30667;43.614;1.442;2024-02-04T01:06:41;32.75;28.50;15.25
44933;PMS3003;30667;43.614;1.442;2024-02-04T01:09:06;30.50;28.00;15.00
44933;PMS3003;30667;43.614;1.442;2024-02-04T01:11:32;33.75;27.75;15.00
44933;PMS3003;30667;43.614;1.442;2024-02-04T01:13:58;34.00;28.00;15.80
44933;PMS3003;30667;43.614;1.442;2024-02-04T01:16:24;35.00;32.25;17.75
44933;PMS3003;30667;43.614;1.442;2024-02-04T01:18:49;38.25;30.00;15.25
44933;PMS3003;30667;43.614;1.442;2024-02-04T01:21:14;33.75;27.25;15.50
44933;PMS3003;30667;43.614;1.442;2024-02-04T01:23:40;37.75;31.75;16.50
44933;PMS3003;30667;43.614;1.442;2024-02-04T01:26:05;34.75;30.75;18.25
44933;PMS3003;30667;43.614;1.442;2024-02-04T01:28:30;36.25;32.00;16.25
44933;PMS3003;30667;43.614;1.442;2024-02-04T01:30:56;36.00;29.75;18.00
44933;PMS3003;30667;43.614;1.442;2024-02-04T01:33:21;36.25;33.00;18.00
44933;PMS3003;30667;43.614;1.442;2024-02-04T01:35:46;36.50;32.25;18.00
44933;PMS3003;30667;43.614;1.442;2024-02-04T01:38:12;39.00;29.50;17.00
44933;PMS3003;30667;43.614;1.442;2024-02-04T01:40:38;41.00;32.00;18.00
44933;PMS3003;30667;43.614;1.442;2024-02-04T01:43:03;37.00;32.00;15.00
44933;PMS3003;30667;43.614;1.442;2024-02-04T01:45:28;39.75;29.50;18.00
44933;PMS3003;30667;43.614;1.442;2024-02-04T01:47:54;31.75;29.50;17.50
44933;PMS3003;30667;43.614;1.442;2024-02-04T01:50:20;39.60;33.00;15.40
44933;PMS3003;30667;43.614;1.442;2024-02-04T01:52:46;38.20;33.00;17.20
44933;PMS3003;30667;43.614;1.442;2024-02-04T01:55:13;41.20;31.60;16.00
44933;PMS3003;30667;43.614;1.442;2024-02-04T01:57:39;37.75;32.00;17.00
44933;PMS3003;30667;43.614;1.442;2024-02-04T02:00:05;32.60;31.00;16.20
44933;PMS3003;30667;43.614;1.442;2024-02-04T02:02:32;29.80;27.80;15.40
44933;PMS3003;30667;43.614;1.442;2024-02-04T02:05:01;33.60;30.80;16.60
44933;PMS3003;30667;43.614;1.442;2024-02-04T02:07:26;37.75;33.25;16.00
44933;PMS3003;30667;43.614;1.442;2024-02-04T02:09:52;38.40;30.40;17.20
44933;PMS3003;30667;43.614;1.442;2024-02-04T02:12:20;37.25;30.00;17.25
44933;PMS3003;30667;43.614;1.442;2024-02-04T02:14:53;35.40;31.20;15.60
44933;PMS3003;30667;43.614;1.442;2024-02-04T02:17:32;36.60;30.40;16.60
44933;PMS3003;30667;43.614;1.442;2024-02-04T02:20:12;41.80;34.40;18.00
44933;PMS3003;30667;43.614;1.442;2024-02-04T02:25:25;33.60;31.20;18.00
44933;PMS3003;30667;43.614;1.442;2024-02-04T02:27:51;42.40;33.80;15.80
44933;PMS3003;30667;43.614;1.442;2024-02-04T02:30:17;48.00;34.75;18.25
44933;PMS3003;30667;43.614;1.442;2024-02-04T02:32:46;33.40;32.60;16.60
44933;PMS3003;30667;43.614;1.442;2024-02-04T02:35:14;41.20;32.20;15.40
44933;PMS3003;30667;43.614;1.442;2024-02-04T02:43:16;38.60;32.80;16.40
44933;PMS3003;30667;43.614;1.442;2024-02-04T02:45:43;36.40;32.20;15.40
44933;PMS3003;30667;43.614;1.442;2024-02-04T02:48:10;39.80;33.40;18.00
44933;PMS3003;30667;43.614;1.442;2024-02-04T02:50:37;40.80;32.20;16.00
44933;PMS3003;30667;43.614;1.442;2024-02-04T02:53:02;38.60;32.40;16.20
44933;PMS3003;30667;43.614;1.442;2024-02-04T02:55:28;35.00;29.50;15.75
44933;PMS3003;30667;43.614;1.442;2024-02-04T02:57:53;40.50;33.75;18.50
44933;PMS3003;30667;43.614;1.442;2024-02-04T03:00:19;36.50;31.00;16.50
44933;PMS3003;30667;43.614;1.442;2024-02-04T03:02:44;46.00;32.50;14.75
44933;PMS3003;30667;43.614;1.442;2024-02-04T03:05:10;41.75;34.75;18.75
44933;PMS3003;30667;43.614;1.442;2024-02-04T03:07:36;40.80;32.40;18.00
44933;PMS3003;30667;43.614;1.442;2024-02-04T03:10:02;43.75;31.50;16.00
44933;PMS3003;30667;43.614;1.442;2024-02-04T03:12:27;45.25;34.50;19.00
44933;PMS3003;30667;43.614;1.442;2024-02-04T03:14:53;38.25;29.50;15.25
44933;PMS3003;30667;43.614;1.442;2024-02-04T03:17:18;36.50;31.75;16.00
44933;PMS3003;30667;43.614;1.442;2024-02-04T03:19:46;40.80;31.20;16.40
44933;PMS3003;30667;43.614;1.442;2024-02-04T03:22:12;39.80;35.40;16.00
44933;PMS3003;30667;43.614;1.442;2024-02-04T03:24:38;39.25;34.50;15.75
44933;PMS3003;30667;43.614;1.442;2024-02-04T03:27:03;41.75;29.00;16.00
44933;PMS3003;30667;43.614;1.442;2024-02-04T03:29:29;43.50;32.00;16.50
44933;PMS3003;30667;43.614;1.442;2024-02-04T03:31:55;37.00;30.75;15.25
44933;PMS3003;30667;43.614;1.442;2024-02-04T03:34:21;41.60;30.80;15.80
44933;PMS3003;30667;43.614;1.442;2024-02-04T03:36:46;39.00;30.75;16.00
44933;PMS3003;30667;43.614;1.442;2024-02-04T03:39:11;38.50;31.00;16.25
44933;PMS3003;30667;43.614;1.442;2024-02-04T03:41:37;38.00;31.00;14.75
44933;PMS3003;30667;43.614;1.442;2024-02-04T03:44:02;41.00;31.00;14.00
44933;PMS3003;30667;43.614;1.442;2024-02-04T03:46:28;40.25;29.75;14.50
44933;PMS3003;30667;43.614;1.442;2024-02-04T03:48:53;38.00;31.25;15.00
44933;PMS3003;30667;43.614;1.442;2024-02-04T03:51:18;33.00;29.50;14.50
44933;PMS3003;30667;43.614;1.442;2024-02-04T03:53:44;40.00;27.25;14.25
44933;PMS3003;30667;43.614;1.442;2024-02-04T03:56:10;35.00;27.20;12.40
44933;PMS3003;30667;43.614;1.442;2024-02-04T03:58:36;34.75;28.75;16.50
44933;PMS3003;30667;43.614;1.442;2024-02-04T04:01:01;36.00;26.00;13.50
44933;PMS3003;30667;43.614;1.442;2024-02-04T04:03:26;30.50;27.50;12.25
44933;PMS3003;30667;43.614;1.442;2024-02-04T04:05:55;29.50;27.00;14.25
44933;PMS3003;30667;43.614;1.442;2024-02-04T04:08:21;38.60;30.40;14.20
44933;PMS3003;30667;43.614;1.442;2024-02-04T04:10:46;31.00;27.50;15.00
44933;PMS3003;30667;43.614;1.442;2024-02-04T04:13:12;35.75;30.00;14.25
44933;PMS3003;30667;43.614;1.442;2024-02-04T04:15:37;37.60;26.00;12.40
44933;PMS3003;30667;43.614;1.442;2024-02-04T04:18:03;30.00;26.25;12.25
44933;PMS3003;30667;43.614;1.442;2024-02-04T04:20:29;38.20;23.80;12.00
44933;PMS3003;30667;43.614;1.442;2024-02-04T04:22:55;29.25;26.00;14.00
44933;PMS3003;30667;43.614;1.442;2024-02-04T04:25:20;35.50;29.75;14.75
44933;PMS3003;30667;43.614;1.442;2024-02-04T04:27:46;30.75;26.50;14.75
44933;PMS3003;30667;43.614;1.442;2024-02-04T04:30:11;37.50;28.00;12.25
44933;PMS3003;30667;43.614;1.442;2024-02-04T04:32:37;39.25;29.25;15.00
44933;PMS3003;30667;43.614;1.442;2024-02-04T04:35:02;32.50;25.25;12.25
44933;PMS3003;30667;43.614;1.442;2024-02-04T04:37:27;32.50;28.00;14.00
44933;PMS3003;30667;43.614;1.442;2024-02-04T04:39:53;31.50;24.50;12.00
44933;PMS3003;30667;43.614;1.442;2024-02-04T04:42:18;34.00;29.25;13.00
44933;PMS3003;30667;43.614;1.442;2024-02-04T04:44:43;28.25;24.75;14.25
44933;PMS3003;30667;43.614;1.442;2024-02-04T04:47:09;39.25;29.25;17.25
44933;PMS3003;30667;43.614;1.442;2024-02-04T04:49:34;47.25;38.75;18.25
44933;PMS3003;30667;43.614;1.442;2024-02-04T04:52:00;40.50;36.75;19.25
44933;PMS3003;30667;43.614;1.442;2024-02-04T04:54:27;41.00;32.00;18.50
44933;PMS3003;30667;43.614;1.442;2024-02-04T04:56:52;46.20;35.60;17.00
44933;PMS3003;30667;43.614;1.442;2024-02-04T04:59:18;40.25;32.50;17.75
44933;PMS3003;30667;43.614;1.442;2024-02-04T05:01:47;47.75;34.50;19.00
44933;PMS3003;30667;43.614;1.442;2024-02-04T05:04:13;40.20;33.00;17.40
44933;PMS3003;30667;43.614;1.442;2024-02-04T05:06:39;40.00;33.40;18.00
44933;PMS3003;30667;43.614;1.442;2024-02-04T05:09:05;38.75;33.50;19.00
44933;PMS3003;30667;43.614;1.442;2024-02-04T05:11:30;42.00;38.75;20.75
44933;PMS3003;30667;43.614;1.442;2024-02-04T05:13:56;39.25;33.50;17.25
44933;PMS3003;30667;43.614;1.442;2024-02-04T05:16:21;47.00;34.00;18.00
44933;PMS3003;30667;43.614;1.442;2024-02-04T05:18:46;47.00;39.00;18.25
44933;PMS3003;30667;43.614;1.442;2024-02-04T05:21:12;51.75;34.25;18.00
44933;PMS3003;30667;43.614;1.442;2024-02-04T05:23:37;48.25;31.50;16.75
44933;PMS3003;30667;43.614;1.442;2024-02-04T05:26:03;40.50;35.50;18.50
44933;PMS3003;30667;43.614;1.442;2024-02-04T05:28:29;44.40;37.40;16.80
44933;PMS3003;30667;43.614;1.442;2024-02-04T05:30:55;44.50;33.00;20.00
44933;PMS3003;30667;43.614;1.442;2024-02-04T05:33:20;45.50;36.00;19.00
44933;PMS3003;30667;43.614;1.442;2024-02-04T05:35:45;45.50;40.25;20.00
44933;PMS3003;30667;43.614;1.442;2024-02-04T05:38:11;44.50;36.50;21.00
44933;PMS3003;30667;43.614;1.442;2024-02-04T05:40:36;48.25;40.00;19.25
44933;PMS3003;30667;43.614;1.442;2024-02-04T05:43:02;44.25;39.00;21.00
44933;PMS3003;30667;43.614;1.442;2024-02-04T05:45:32;52.00;42.40;23.20
44933;PMS3003;30667;43.614;1.442;2024-02-04T05:47:58;44.60;38.20;18.80
44933;PMS3003;30667;43.614;1.442;2024-02-04T05:50:24;40.50;36.00;18.00
44933;PMS3003;30667;43.614;1.442;2024-02-04T05:52:49;48.25;41.25;23.25
44933;PMS3003;30667;43.614;1.442;2024-02-04T05:55:14;50.25;41.00;22.00
44933;PMS3003;30667;43.614;1.442;2024-02-04T05:57:40;48.50;33.00;15.50
44933;PMS3003;30667;43.614;1.442;2024-02-04T06:00:06;37.25;31.50;16.25
44933;PMS3003;30667;43.614;1.442;2024-02-04T06:02:33;42.20;30.20;15.40
44933;PMS3003;30667;43.614;1.442;2024-02-04T06:04:59;32.00;27.00;15.25
44933;PMS3003;30667;43.614;1.442;2024-02-04T06:07:24;40.25;31.00;15.00
44933;PMS3003;30667;43.614;1.442;2024-02-04T06:09:50;41.75;35.50;18.25
44933;PMS3003;30667;43.614;1.442;2024-02-04T06:12:15;45.00;34.75;19.00
44933;PMS3003;30667;43.614;1.442;2024-02-04T06:14:41;43.25;41.25;19.00
44933;PMS3003;30667;43.614;1.442;2024-02-04T06:17:06;44.50;36.00;18.25
44933;PMS3003;30667;43.614;1.442;2024-02-04T06:19:35;44.40;32.60;18.60
44933;PMS3003;30667;43.614;1.442;2024-02-04T06:22:00;43.75;35.25;18.00
44933;PMS3003;30667;43.614;1.442;2024-02-04T06:24:26;46.50;36.25;17.50
44933;PMS3003;30667;43.614;1.442;2024-02-04T06:26:51;36.25;32.50;16.25
44933;PMS3003;30667;43.614;1.442;2024-02-04T06:29:16;40.75;32.25;16.00
44933;PMS3003;30667;43.614;1.442;2024-02-04T06:31:46;50.25;36.50;18.25
44933;PMS3003;30667;43.614;1.442;2024-02-04T06:34:12;38.40;33.00;17.80
44933;PMS3003;30667;43.614;1.442;2024-02-04T06:36:37;41.00;32.20;18.40
44933;PMS3003;30667;43.614;1.442;2024-02-04T06:39:03;46.25;38.25;18.75
44933;PMS3003;30667;43.614;1.442;2024-02-04T06:41:28;49.50;40.25;19.50
44933;PMS3003;30667;43.614;1.442;2024-02-04T06:43:53;38.00;34.75;17.50
44933;PMS3003;30667;43.614;1.442;2024-02-04T06:46:28;48.50;38.25;18.00
44933;PMS3003;30667;43.614;1.442;2024-02-04T06:48:54;49.40;37.40;16.00
44933;PMS3003;30667;43.614;1.442;2024-02-04T06:51:19;52.50;39.25;18.75
44933;PMS3003;30667;43.614;1.442;2024-02-04T06:53:45;45.25;36.50;18.00
44933;PMS3003;30667;43.614;1.442;2024-02-04T06:56:10;53.00;42.00;19.75
44933;PMS3003;30667;43.614;1.442;2024-02-04T06:58:42;42.50;33.75;18.25
44933;PMS3003;30667;43.614;1.442;2024-02-04T07:01:08;42.20;37.00;19.00
44933;PMS3003;30667;43.614;1.442;2024-02-04T07:03:34;42.80;35.40;17.80
44933;PMS3003;30667;43.614;1.442;2024-02-04T07:05:59;42.25;35.25;16.00
44933;PMS3003;30667;43.614;1.442;2024-02-04T07:11:51;45.60;31.20;15.20
44933;PMS3003;30667;43.614;1.442;2024-02-04T07:14:16;47.50;37.25;18.00
44933;PMS3003;30667;43.614;1.442;2024-02-04T07:16:41;47.00;34.25;18.00
44933;PMS3003;30667;43.614;1.442;2024-02-04T07:19:07;44.25;36.00;17.75
44933;PMS3003;30667;43.614;1.442;2024-02-04T07:21:33;49.00;37.75;18.50
44933;PMS3003;30667;43.614;1.442;2024-02-04T07:23:58;46.75;40.00;18.75
44933;PMS3003;30667;43.614;1.442;2024-02-04T07:29:01;50.60;39.00;18.60
44933;PMS3003;30667;43.614;1.442;2024-02-04T07:31:26;51.50;37.00;18.00
44933;PMS3003;30667;43.614;1.442;2024-02-04T07:33:52;44.25;33.25;16.00
44933;PMS3003;30667;43.614;1.442;2024-02-04T07:36:17;38.00;34.00;15.50
44933;PMS3003;30667;43.614;1.442;2024-02-04T07:38:43;50.75;36.25;18.00
44933;PMS3003;30667;43.614;1.442;2024-02-04T07:41:08;39.75;29.00;16.00
44933;PMS3003;30667;43.614;1.442;2024-02-04T07:43:33;33.00;27.75;14.00
44933;PMS3003;30667;43.614;1.442;2024-02-04T07:45:59;45.00;33.00;15.00
44933;PMS3003;30667;43.614;1.442;2024-02-04T07:48:24;42.00;35.00;15.00
44933;PMS3003;30667;43.614;1.442;2024-02-04T07:50:49;37.00;27.25;14.00
44933;PMS3003;30667;43.614;1.442;2024-02-04T07:53:15;33.50;30.00;13.75
44933;PMS3003;30667;43.614;1.442;2024-02-04T07:55:40;31.00;29.25;15.00
44933;PMS3003;30667;43.614;1.442;2024-02-04T07:58:06;35.75;30.75;15.00
44933;PMS3003;30667;43.614;1.442;2024-02-04T08:00:31;40.75;34.25;16.00
44933;PMS3003;30667;43.614;1.442;2024-02-04T08:02:56;40.75;30.25;14.00
44933;PMS3003;30667;43.614;1.442;2024-02-04T08:05:22;40.75;36.00;16.75
44933;PMS3003;30667;43.614;1.442;2024-02-04T08:07:47;47.75;34.25;15.50
44933;PMS3003;30667;43.614;1.442;2024-02-04T08:10:12;39.75;35.75;17.50
44933;PMS3003;30667;43.614;1.442;2024-02-04T08:12:40;38.40;33.80;15.20
44933;PMS3003;30667;43.614;1.442;2024-02-04T08:15:05;39.75;33.00;18.00
44933;PMS3003;30667;43.614;1.442;2024-02-04T08:17:31;40.60;34.60;16.00
44933;PMS3003;30667;43.614;1.442;2024-02-04T08:19:58;38.80;32.20;15.80
44933;PMS3003;30667;43.614;1.442;2024-02-04T08:22:23;45.25;32.75;16.00
44933;PMS3003;30667;43.614;1.442;2024-02-04T08:24:48;45.50;32.00;16.00
44933;PMS3003;30667;43.614;1.442;2024-02-04T08:27:14;44.75;31.50;15.25
44933;PMS3003;30667;43.614;1.442;2024-02-04T08:29:43;40.60;29.80;16.00
44933;PMS3003;30667;43.614;1.442;2024-02-04T08:32:08;45.25;31.00;17.00
44933;PMS3003;30667;43.614;1.442;2024-02-04T08:34:34;39.25;31.25;15.00
44933;PMS3003;30667;43.614;1.442;2024-02-04T08:36:59;39.75;31.00;16.00
44933;PMS3003;30667;43.614;1.442;2024-02-04T08:39:24;43.25;29.00;16.50
44933;PMS3003;30667;43.614;1.442;2024-02-04T08:41:50;36.00;31.60;15.20
44933;PMS3003;30667;43.614;1.442;2024-02-04T08:44:16;38.25;29.25;15.00
44933;PMS3003;30667;43.614;1.442;2024-02-04T08:46:42;41.50;33.50;16.00
44933;PMS3003;30667;43.614;1.442;2024-02-04T08:49:07;44.00;35.25;17.50
44933;PMS3003;30667;43.614;1.442;2024-02-04T08:51:32;46.00;32.00;15.75
44933;PMS3003;30667;43.614;1.442;2024-02-04T08:53:58;36.50;31.75;15.75
44933;PMS3003;30667;43.614;1.442;2024-02-04T08:56:23;39.00;32.25;15.25
44933;PMS3003;30667;43.614;1.442;2024-02-04T08:58:49;37.75;29.25;14.75
44933;PMS3003;30667;43.614;1.442;2024-02-04T09:01:14;45.00;34.00;15.00
44933;PMS3003;30667;43.614;1.442;2024-02-04T09:03:39;39.50;33.00;18.00
44933;PMS3003;30667;43.614;1.442;2024-02-04T09:06:05;46.00;36.75;17.00
44933;PMS3003;30667;43.614;1.442;2024-02-04T09:08:30;34.25;30.00;15.75
44933;PMS3003;30667;43.614;1.442;2024-02-04T09:10:55;36.75;32.50;17.75
44933;PMS3003;30667;43.614;1.442;2024-02-04T09:13:21;43.00;35.40;16.20
44933;PMS3003;30667;43.614;1.442;2024-02-04T09:15:47;41.25;29.25;15.50
44933;PMS3003;30667;43.614;1.442;2024-02-04T09:18:12;37.50;32.50;15.00
44933;PMS3003;30667;43.614;1.442;2024-02-04T09:20:38;39.00;33.00;16.75
44933;PMS3003;30667;43.614;1.442;2024-02-04T09:23:03;32.50;30.00;15.00
44933;PMS3003;30667;43.614;1.442;2024-02-04T09:25:30;40.80;31.00;15.40
44933;PMS3003;30667;43.614;1.442;2024-02-04T09:27:55;31.50;29.75;16.00
44933;PMS3003;30667;43.614;1.442;2024-02-04T09:30:20;42.25;32.50;16.00
44933;PMS3003;30667;43.614;1.442;2024-02-04T09:32:46;45.75;32.75;16.25
44933;PMS3003;30667;43.614;1.442;2024-02-04T09:35:12;42.80;36.40;18.60
44933;PMS3003;30667;43.614;1.442;2024-02-04T09:37:37;39.50;29.50;15.50
44933;PMS3003;30667;43.614;1.442;2024-02-04T09:40:02;43.25;38.00;19.00
44933;PMS3003;30667;43.614;1.442;2024-02-04T09:42:29;52.40;38.40;18.40
44933;PMS3003;30667;43.614;1.442;2024-02-04T09:44:56;50.00;39.60;21.60
44933;PMS3003;30667;43.614;1.442;2024-02-04T09:47:22;54.25;41.50;21.00
44933;PMS3003;30667;43.614;1.442;2024-02-04T09:49:47;45.25;37.25;18.00
44933;PMS3003;30667;43.614;1.442;2024-02-04T09:52:13;41.50;36.50;18.75
44933;PMS3003;30667;43.614;1.442;2024-02-04T09:54:45;51.00;36.60;20.00
44933;PMS3003;30667;43.614;1.442;2024-02-04T09:57:13;46.80;40.80;20.20
44933;PMS3003;30667;43.614;1.442;2024-02-04T09:59:39;45.20;34.20;19.00
44933;PMS3003;30667;43.614;1.442;2024-02-04T10:02:05;48.75;37.25;19.00
44933;PMS3003;30667;43.614;1.442;2024-02-04T10:04:32;53.40;40.60;18.80
44933;PMS3003;30667;43.614;1.442;2024-02-04T10:06:58;46.20;37.20;18.00
44933;PMS3003;30667;43.614;1.442;2024-02-04T10:09:24;43.60;37.60;17.80
44933;PMS3003;30667;43.614;1.442;2024-02-04T10:11:49;38.75;33.75;16.50
44933;PMS3003;30667;43.614;1.442;2024-02-04T10:14:15;37.50;32.25;17.25
44933;PMS3003;30667;43.614;1.442;2024-02-04T10:16:41;42.60;34.40;18.20
44933;PMS3003;30667;43.614;1.442;2024-02-04T10:19:06;50.50;39.75;19.00
44933;PMS3003;30667;43.614;1.442;2024-02-04T10:21:32;43.25;34.75;17.75
44933;PMS3003;30667;43.614;1.442;2024-02-04T10:23:57;46.25;36.00;20.00
44933;PMS3003;30667;43.614;1.442;2024-02-04T10:26:23;43.60;35.60;17.40
44933;PMS3003;30667;43.614;1.442;2024-02-04T10:28:57;60.60;39.60;18.20
44933;PMS3003;30667;43.614;1.442;2024-02-04T10:31:23;44.60;37.60;18.20
44933;PMS3003;30667;43.614;1.442;2024-02-04T10:33:50;39.60;34.40;18.60
44933;PMS3003;30667;43.614;1.442;2024-02-04T10:36:16;46.80;36.80;17.60
44933;PMS3003;30667;43.614;1.442;2024-02-04T10:38:41;56.50;35.25;19.25
44933;PMS3003;30667;43.614;1.442;2024-02-04T10:41:07;50.00;40.75;22.25
44933;PMS3003;30667;43.614;1.442;2024-02-04T10:43:35;56.20;43.80;24.80
44933;PMS3003;30667;43.614;1.442;2024-02-04T10:46:13;60.60;44.80;23.20
44933;PMS3003;30667;43.614;1.442;2024-02-04T10:48:42;59.80;44.80;24.60
44933;PMS3003;30667;43.614;1.442;2024-02-04T10:51:11;58.40;43.80;22.60
44933;PMS3003;30667;43.614;1.442;2024-02-04T10:53:40;58.20;46.60;23.40
44933;PMS3003;30667;43.614;1.442;2024-02-04T10:56:07;55.40;40.80;20.40
44933;PMS3003;30667;43.614;1.442;2024-02-04T10:58:43;53.20;44.40;24.80
44933;PMS3003;30667;43.614;1.442;2024-02-04T11:01:10;59.60;43.00;23.40
44933;PMS3003;30667;43.614;1.442;2024-02-04T11:03:35;51.60;41.80;21.80
44933;PMS3003;30667;43.614;1.442;2024-02-04T11:06:01;63.00;44.40;24.20
44933;PMS3003;30667;43.614;1.442;2024-02-04T11:08:28;63.00;45.60;26.00
44933;PMS3003;30667;43.614;1.442;2024-02-04T11:10:53;63.00;46.50;25.00
44933;PMS3003;30667;43.614;1.442;2024-02-04T11:13:19;53.50;44.25;23.75
44933;PMS3003;30667;43.614;1.442;2024-02-04T11:15:47;58.00;44.60;24.80
44933;PMS3003;30667;43.614;1.442;2024-02-04T11:18:29;54.80;44.40;25.80
44933;PMS3003;30667;43.614;1.442;2024-02-04T11:26:18;55.00;42.20;24.00
44933;PMS3003;30667;43.614;1.442;2024-02-04T11:28:45;57.00;44.20;23.40
44933;PMS3003;30667;43.614;1.442;2024-02-04T11:31:14;54.00;40.75;21.00
44933;PMS3003;30667;43.614;1.442;2024-02-04T11:33:42;58.20;43.00;23.20
44933;PMS3003;30667;43.614;1.442;2024-02-04T11:36:11;56.75;42.75;22.25
44933;PMS3003;30667;43.614;1.442;2024-02-04T11:38:38;54.80;43.00;24.40
44933;PMS3003;30667;43.614;1.442;2024-02-04T11:41:05;51.60;41.00;22.80
44933;PMS3003;30667;43.614;1.442;2024-02-04T11:43:34;60.80;42.60;24.20
44933;PMS3003;30667;43.614;1.442;2024-02-04T11:46:02;55.80;41.00;22.80
44933;PMS3003;30667;43.614;1.442;2024-02-04T11:48:29;56.40;42.20;23.00
44933;PMS3003;30667;43.614;1.442;2024-02-04T11:50:57;58.00;41.60;22.60
44933;PMS3003;30667;43.614;1.442;2024-02-04T11:53:23;60.60;42.60;21.40
44933;PMS3003;30667;43.614;1.442;2024-02-04T11:55:51;60.80;44.20;25.00
44933;PMS3003;30667;43.614;1.442;2024-02-04T11:58:18;50.80;41.60;23.80
44933;PMS3003;30667;43.614;1.442;2024-02-04T12:00:44;58.20;42.80;24.00
44933;PMS3003;30667;43.614;1.442;2024-02-04T12:03:10;60.80;45.20;24.40
44933;PMS3003;30667;43.614;1.442;2024-02-04T12:05:36;58.75;43.00;23.50
44933;PMS3003;30667;43.614;1.442;2024-02-04T12:08:07;59.00;44.40;25.80
44933;PMS3003;30667;43.614;1.442;2024-02-04T12:10:38;63.80;49.40;27.80
44933;PMS3003;30667;43.614;1.442;2024-02-04T12:13:45;57.40;45.80;26.20
44933;PMS3003;30667;43.614;1.442;2024-02-04T12:16:12;61.40;47.20;26.40
44933;PMS3003;30667;43.614;1.442;2024-02-04T12:18:47;65.75;46.75;27.75
44933;PMS3003;30667;43.614;1.442;2024-02-04T12:21:13;55.80;43.60;23.40
44933;PMS3003;30667;43.614;1.442;2024-02-04T12:23:39;57.40;44.80;25.20
44933;PMS3003;30667;43.614;1.442;2024-02-04T12:26:04;56.25;42.50;24.75
44933;PMS3003;30667;43.614;1.442;2024-02-04T12:28:30;53.60;43.20;24.80
44933;PMS3003;30667;43.614;1.442;2024-02-04T12:30:56;58.50;43.00;23.50
44933;PMS3003;30667;43.614;1.442;2024-02-04T12:33:23;53.80;42.60;23.60
44933;PMS3003;30667;43.614;1.442;2024-02-04T12:35:52;58.50;45.00;25.25
44933;PMS3003;30667;43.614;1.442;2024-02-04T12:38:20;59.80;44.40;24.20
44933;PMS3003;30667;43.614;1.442;2024-02-04T12:40:46;76.00;56.67;31.00
44933;PMS3003;30667;43.614;1.442;2024-02-04T12:43:11;77.00;55.33;32.33
44933;PMS3003;30667;43.614;1.442;2024-02-04T12:45:37;69.00;49.75;29.00
44933;PMS3003;30667;43.614;1.442;2024-02-04T12:48:03;54.75;43.25;25.00
44933;PMS3003;30667;43.614;1.442;2024-02-04T12:50:28;57.75;46.00;25.00
44933;PMS3003;30667;43.614;1.442;2024-02-04T12:53:02;51.60;43.20;25.00
44933;PMS3003;30667;43.614;1.442;2024-02-04T12:55:28;59.60;46.60;26.80
44933;PMS3003;30667;43.614;1.442;2024-02-04T13:00:39;56.80;44.40;23.60
44933;PMS3003;30667;43.614;1.442;2024-02-04T13:03:06;53.00;43.00;23.60
44933;PMS3003;30667;43.614;1.442;2024-02-04T13:05:33;58.40;43.40;24.20
44933;PMS3003;30667;43.614;1.442;2024-02-04T13:08:00;54.20;42.60;23.00
44933;PMS3003;30667;43.614;1.442;2024-02-04T13:10:27;56.40;42.20;22.80
44933;PMS3003;30667;43.614;1.442;2024-02-04T13:12:59;49.00;40.20;24.00
44933;PMS3003;30667;43.614;1.442;2024-02-04T13:15:26;52.60;41.20;24.00
44933;PMS3003;30667;43.614;1.442;2024-02-04T13:17:54;48.80;42.60;22.40
44933;PMS3003;30667;43.614;1.442;2024-02-04T13:20:20;50.75;40.25;23.00
44933;PMS3003;30667;43.614;1.442;2024-02-04T13:22:47;40.00;37.40;22.20
44933;PMS3003;30667;43.614;1.442;2024-02-04T13:25:12;44.25;39.50;23.75
44933;PMS3003;30667;43.614;1.442;2024-02-04T13:27:37;41.50;39.25;23.25
44933;PMS3003;30667;43.614;1.442;2024-02-04T13:30:03;45.00;39.75;23.00
44933;PMS3003;30667;43.614;1.442;2024-02-04T13:32:34;41.80;37.80;22.80
44933;PMS3003;30667;43.614;1.442;2024-02-04T13:34:59;41.60;37.20;23.60
44933;PMS3003;30667;43.614;1.442;2024-02-04T13:37:25;43.00;37.75;23.00
44933;PMS3003;30667;43.614;1.442;2024-02-04T13:39:50;43.00;34.50;20.50
44933;PMS3003;30667;43.614;1.442;2024-02-04T13:42:16;51.50;42.00;25.00
44933;PMS3003;30667;43.614;1.442;2024-02-04T13:44:41;41.00;34.50;20.25
44933;PMS3003;30667;43.614;1.442;2024-02-04T13:47:06;43.00;35.75;21.50
44933;PMS3003;30667;43.614;1.442;2024-02-04T13:49:32;46.25;37.50;20.00
44933;PMS3003;30667;43.614;1.442;2024-02-04T13:51:57;44.50;38.25;21.25
44933;PMS3003;30667;43.614;1.442;2024-02-04T13:54:23;42.25;37.50;22.75
44933;PMS3003;30667;43.614;1.442;2024-02-04T13:56:48;46.50;40.75;24.00
44933;PMS3003;30667;43.614;1.442;2024-02-04T13:59:14;42.60;38.20;21.00
44933;PMS3003;30667;43.614;1.442;2024-02-04T14:01:40;52.75;41.25;24.50
44933;PMS3003;30667;43.614;1.442;2024-02-04T14:04:05;44.00;37.25;21.50